FYGA4: White River At Fayetteville, AR

                                SHEF ID:       FYGA4     White River near Fayetteville, A
STATION TYPE: Stream Gauge

PRECIP STAGE RIV-FLOW WTR-TEMP DIS-OXY PH CONDUCT BAT-LOAD
in ft cfs F mg/l su umho/cm volt
Ccp-Rev Ccp-Rev Ccp-Rev Ccp-Rev Ccp-Rev Ccp-Rev Ccp-Rev Ccp-Rev
(America/Chicago)
03/31 00:00 0.00 2.31 156 63.34 8.11 7.70 127 12.65
03/31 01:00 0.00 2.30 154 63.09 8.09 7.69 127 12.65
03/31 02:00 0.00 2.30 154 62.80 8.10 7.67 127 12.57
03/31 03:00 0.00 2.31 156 62.46 8.12 7.66 127 12.57
03/31 04:00 0.00 2.31 156 62.17 8.15 7.66 127 12.57
03/31 05:00 0.00 2.30 154 61.86 8.06 7.65 127 12.57
03/31 06:00 0.00 2.30 154 61.57 8.06 7.62 128 12.49
03/31 07:00 0.00 2.30 154 61.29 7.91 7.63 128 12.41
03/31 08:00 0.00 2.30 154 61.07 8.16 7.63 129 12.41
03/31 09:00 0.00 2.30 154 61.11 8.38 7.65 129 13.37
03/31 10:00 0.00 2.25 141 61.16 8.70 7.70 130 13.29
03/31 11:00 0.00 2.23 137 61.41 8.85 7.75 132 13.37
03/31 12:00 0.00 2.27 146 61.74 9.05 7.80 133 13.37
03/31 13:00 0.00 2.29 151 62.24 9.23 7.86 135 13.29
03/31 14:00 0.00 2.29 151 63.73 9.49 7.90 136 14.00
03/31 15:00 0.00 2.27 146 64.90 9.59 7.97 137 13.84
03/31 16:00 0.00 2.24 139 65.80 9.61 8.02 138 13.84
03/31 17:00 0.00 2.24 139 66.04 9.46 8.06 139 13.76
03/31 18:00 0.00 2.27 146 65.50 9.34 8.07 139 13.13
03/31 19:00 0.00 2.27 146 64.58 9.15 8.03 139 12.97
03/31 20:00 0.00 2.27 146 63.72 8.73 7.96 138 12.89
03/31 21:00 0.00 2.27 146 62.96 8.56 7.88 138 12.81
03/31 22:00 0.00 2.27 146 62.29 8.48 7.82 138 12.73
03/31 23:00 0.00 2.27 146 61.77 8.44 7.78 138 12.73
Data processed at Tue 01Apr2025 04:10 GMT

Parsing this webpage?

Checkout our new Data API! CWMSDataAPI (CDA)

Timeseries IDs (TSIDs)

TSIDs used from left to right in the data table
FAYE.Precip-Inc.Total.1Hour.1Hour.Ccp-Rev
FAYE.Stage.Inst.1Hour.0.Ccp-Rev
FAYE.Flow.Inst.1Hour.0.Ccp-Rev
FAYE.Temp-Water.Inst.1Hour.0.Ccp-Rev
FAYE.Conc-DO.Inst.1Hour.0.Ccp-Rev
FAYE.pH.Inst.1Hour.0.Ccp-Rev
FAYE.Cond-Water.Inst.1Hour.0.Ccp-Rev
FAYE.Volt-Battery Load.Inst.1Hour.0.Ccp-Rev

                            

All information presented herein is the property of the government of the United States of America and may be revised or deleted at any time without prior notice. Dissemination of this information without the expressed written consent of the Public Affairs Office, Tulsa District U.S. Army Corps of Engineers is strictly prohibited. These data are gathered electronically and, as presented, have NOT undergone any form of quality control. These data are NOT guaranteed to be valid or correct.